sensor_id;sensor_type;location;lat;lon;timestamp;pressure;altitude;pressure_sealevel;temperature;humidity
38612;BME280;24368;52.156;20.788;2023-05-11T00:06:05;100954.05;;;9.89;53.10
38612;BME280;24368;52.156;20.788;2023-05-11T00:11:07;100954.90;;;9.86;53.56
38612;BME280;24368;52.156;20.788;2023-05-11T00:16:09;100951.34;;;9.80;53.03
38612;BME280;24368;52.156;20.788;2023-05-11T00:21:10;100953.10;;;9.74;52.50
38612;BME280;24368;52.156;20.788;2023-05-11T00:26:11;100950.86;;;9.66;52.58
38612;BME280;24368;52.156;20.788;2023-05-11T00:31:12;100954.85;;;9.60;53.48
38612;BME280;24368;52.156;20.788;2023-05-11T00:36:13;100948.95;;;9.55;54.25
38612;BME280;24368;52.156;20.788;2023-05-11T00:41:14;100954.32;;;9.52;54.83
38612;BME280;24368;52.156;20.788;2023-05-11T00:46:15;100947.92;;;9.45;55.13
38612;BME280;24368;52.156;20.788;2023-05-11T00:51:17;100946.95;;;9.40;54.74
38612;BME280;24368;52.156;20.788;2023-05-11T00:56:19;100943.12;;;9.35;55.42
38612;BME280;24368;52.156;20.788;2023-05-11T01:01:21;100941.03;;;9.27;55.68
38612;BME280;24368;52.156;20.788;2023-05-11T01:06:30;100943.39;;;9.20;55.78
38612;BME280;24368;52.156;20.788;2023-05-11T01:11:47;100941.22;;;9.14;56.49
38612;BME280;24368;52.156;20.788;2023-05-11T01:16:55;100944.80;;;9.05;57.11
38612;BME280;24368;52.156;20.788;2023-05-11T01:21:58;100946.41;;;9.02;56.85
38612;BME280;24368;52.156;20.788;2023-05-11T01:27:30;100941.66;;;8.98;56.75
38612;BME280;24368;52.156;20.788;2023-05-11T01:32:37;100938.64;;;8.95;56.75
38612;BME280;24368;52.156;20.788;2023-05-11T01:37:46;100938.16;;;8.80;56.74
38612;BME280;24368;52.156;20.788;2023-05-11T01:42:50;100934.84;;;8.71;56.93
38612;BME280;24368;52.156;20.788;2023-05-11T01:47:54;100930.09;;;8.71;57.29
38612;BME280;24368;52.156;20.788;2023-05-11T01:52:56;100933.52;;;8.59;56.81
38612;BME280;24368;52.156;20.788;2023-05-11T01:57:57;100934.88;;;8.38;58.50
38612;BME280;24368;52.156;20.788;2023-05-11T02:03:00;100941.95;;;8.31;57.86
38612;BME280;24368;52.156;20.788;2023-05-11T02:08:05;100941.77;;;8.25;59.10
38612;BME280;24368;52.156;20.788;2023-05-11T02:13:09;100937.84;;;8.24;59.63
38612;BME280;24368;52.156;20.788;2023-05-11T02:18:13;100939.31;;;8.27;60.01
38612;BME280;24368;52.156;20.788;2023-05-11T02:23:16;100946.91;;;8.20;59.72
38612;BME280;24368;52.156;20.788;2023-05-11T02:28:18;100939.96;;;8.17;60.38
38612;BME280;24368;52.156;20.788;2023-05-11T02:33:25;100941.65;;;8.15;60.43
38612;BME280;24368;52.156;20.788;2023-05-11T02:38:35;100942.63;;;8.05;61.31
38612;BME280;24368;52.156;20.788;2023-05-11T02:43:43;100943.56;;;8.00;62.63
38612;BME280;24368;52.156;20.788;2023-05-11T02:48:50;100946.29;;;7.86;63.72
38612;BME280;24368;52.156;20.788;2023-05-11T02:53:54;100947.58;;;7.85;62.58
38612;BME280;24368;52.156;20.788;2023-05-11T02:58:58;100947.40;;;7.85;62.30
38612;BME280;24368;52.156;20.788;2023-05-11T03:04:03;100949.83;;;7.81;62.64
38612;BME280;24368;52.156;20.788;2023-05-11T03:09:05;100949.34;;;7.85;62.53
38612;BME280;24368;52.156;20.788;2023-05-11T03:14:07;100950.45;;;7.78;62.92
38612;BME280;24368;52.156;20.788;2023-05-11T03:19:09;100951.71;;;7.75;63.08
38612;BME280;24368;52.156;20.788;2023-05-11T03:24:11;100954.79;;;7.74;62.05
38612;BME280;24368;52.156;20.788;2023-05-11T03:29:14;100957.64;;;7.78;62.18
38612;BME280;24368;52.156;20.788;2023-05-11T03:34:16;100961.34;;;7.78;62.41
38612;BME280;24368;52.156;20.788;2023-05-11T03:39:19;100966.52;;;7.81;61.99
38612;BME280;24368;52.156;20.788;2023-05-11T03:44:21;100970.68;;;7.77;61.75
38612;BME280;24368;52.156;20.788;2023-05-11T03:49:24;100973.73;;;7.76;62.39
38612;BME280;24368;52.156;20.788;2023-05-11T03:54:26;100975.14;;;7.81;62.32
38612;BME280;24368;52.156;20.788;2023-05-11T03:59:28;100977.86;;;7.86;62.05
38612;BME280;24368;52.156;20.788;2023-05-11T04:04:29;100984.72;;;7.93;61.53
38612;BME280;24368;52.156;20.788;2023-05-11T04:09:31;100987.27;;;7.94;61.42
38612;BME280;24368;52.156;20.788;2023-05-11T04:14:32;100984.62;;;7.98;61.37
38612;BME280;24368;52.156;20.788;2023-05-11T04:19:33;100981.55;;;8.06;61.07
38612;BME280;24368;52.156;20.788;2023-05-11T04:24:34;100982.17;;;8.14;60.12
38612;BME280;24368;52.156;20.788;2023-05-11T04:29:35;100977.22;;;8.23;59.04
38612;BME280;24368;52.156;20.788;2023-05-11T04:34:36;100977.44;;;8.33;59.51
38612;BME280;24368;52.156;20.788;2023-05-11T04:39:37;100978.05;;;8.36;59.27
38612;BME280;24368;52.156;20.788;2023-05-11T04:44:39;100982.71;;;8.42;59.46
38612;BME280;24368;52.156;20.788;2023-05-11T04:49:40;100984.37;;;8.54;59.19
38612;BME280;24368;52.156;20.788;2023-05-11T04:54:41;100982.10;;;8.58;58.52
38612;BME280;24368;52.156;20.788;2023-05-11T04:59:42;100986.08;;;8.63;59.11
38612;BME280;24368;52.156;20.788;2023-05-11T05:04:43;100989.94;;;8.70;58.91
38612;BME280;24368;52.156;20.788;2023-05-11T05:09:44;100993.90;;;8.79;57.64
38612;BME280;24368;52.156;20.788;2023-05-11T05:14:46;100995.63;;;8.98;55.77
38612;BME280;24368;52.156;20.788;2023-05-11T05:19:47;101000.13;;;9.12;56.17
38612;BME280;24368;52.156;20.788;2023-05-11T05:24:48;101003.02;;;9.28;54.75
38612;BME280;24368;52.156;20.788;2023-05-11T05:29:49;101003.17;;;9.28;56.06
38612;BME280;24368;52.156;20.788;2023-05-11T05:34:50;101006.00;;;9.36;55.54
38612;BME280;24368;52.156;20.788;2023-05-11T05:39:51;101008.63;;;9.49;54.31
38612;BME280;24368;52.156;20.788;2023-05-11T05:44:52;101012.08;;;9.66;53.36
38612;BME280;24368;52.156;20.788;2023-05-11T05:49:53;101008.96;;;9.78;54.05
38612;BME280;24368;52.156;20.788;2023-05-11T05:54:54;101015.14;;;10.04;52.41
38612;BME280;24368;52.156;20.788;2023-05-11T05:59:55;101019.05;;;10.19;52.58
38612;BME280;24368;52.156;20.788;2023-05-11T06:04:57;101012.66;;;10.12;52.87
38612;BME280;24368;52.156;20.788;2023-05-11T06:09:58;101014.30;;;10.19;52.71
38612;BME280;24368;52.156;20.788;2023-05-11T06:15:00;101013.98;;;10.39;52.94
38612;BME280;24368;52.156;20.788;2023-05-11T06:20:01;101016.98;;;10.53;51.72
38612;BME280;24368;52.156;20.788;2023-05-11T06:25:02;101015.69;;;10.98;48.95
38612;BME280;24368;52.156;20.788;2023-05-11T06:30:05;101018.74;;;11.03;49.58
38612;BME280;24368;52.156;20.788;2023-05-11T06:35:07;101019.91;;;11.00;49.97
38612;BME280;24368;52.156;20.788;2023-05-11T06:40:08;101020.50;;;11.21;48.82
38612;BME280;24368;52.156;20.788;2023-05-11T06:45:10;101015.21;;;11.57;47.63
38612;BME280;24368;52.156;20.788;2023-05-11T06:50:11;101018.88;;;11.59;47.16
38612;BME280;24368;52.156;20.788;2023-05-11T06:55:12;101017.08;;;11.87;45.95
38612;BME280;24368;52.156;20.788;2023-05-11T07:00:16;101022.23;;;12.02;45.28
38612;BME280;24368;52.156;20.788;2023-05-11T07:05:18;101020.05;;;11.91;46.52
38612;BME280;24368;52.156;20.788;2023-05-11T07:10:19;101018.05;;;12.07;45.26
38612;BME280;24368;52.156;20.788;2023-05-11T07:15:20;101018.94;;;12.23;43.83
38612;BME280;24368;52.156;20.788;2023-05-11T07:20:22;101020.33;;;12.36;43.23
38612;BME280;24368;52.156;20.788;2023-05-11T07:25:24;101013.28;;;12.77;42.13
38612;BME280;24368;52.156;20.788;2023-05-11T07:30:25;101012.76;;;12.70;43.33
38612;BME280;24368;52.156;20.788;2023-05-11T07:35:26;101009.17;;;12.69;43.07
38612;BME280;24368;52.156;20.788;2023-05-11T07:40:28;101006.74;;;12.91;40.58
38612;BME280;24368;52.156;20.788;2023-05-11T07:45:29;101015.08;;;13.12;37.70
38612;BME280;24368;52.156;20.788;2023-05-11T07:50:30;101003.73;;;13.44;36.45
38612;BME280;24368;52.156;20.788;2023-05-11T07:55:31;100996.35;;;13.40;36.95
38612;BME280;24368;52.156;20.788;2023-05-11T08:00:33;101003.48;;;13.34;37.35
38612;BME280;24368;52.156;20.788;2023-05-11T08:05:34;101001.23;;;13.41;36.84
38612;BME280;24368;52.156;20.788;2023-05-11T08:10:37;101001.97;;;13.65;35.74
38612;BME280;24368;52.156;20.788;2023-05-11T08:15:38;101005.24;;;13.64;36.06
38612;BME280;24368;52.156;20.788;2023-05-11T08:20:39;100996.23;;;13.79;35.64
38612;BME280;24368;52.156;20.788;2023-05-11T08:25:51;100979.50;;;13.72;36.49
38612;BME280;24368;52.156;20.788;2023-05-11T08:30:57;100995.42;;;13.85;35.24
38612;BME280;24368;52.156;20.788;2023-05-11T08:35:59;100997.09;;;14.12;34.87
38612;BME280;24368;52.156;20.788;2023-05-11T08:41:00;100983.61;;;14.17;34.74
38612;BME280;24368;52.156;20.788;2023-05-11T08:46:03;100988.06;;;14.27;35.09
38612;BME280;24368;52.156;20.788;2023-05-11T08:51:08;100988.42;;;14.41;33.92
38612;BME280;24368;52.156;20.788;2023-05-11T08:56:10;100977.04;;;14.34;35.32
38612;BME280;24368;52.156;20.788;2023-05-11T09:01:12;100977.86;;;14.41;35.74
38612;BME280;24368;52.156;20.788;2023-05-11T09:06:15;100980.75;;;14.69;34.01
38612;BME280;24368;52.156;20.788;2023-05-11T09:11:17;100984.30;;;14.72;33.30
38612;BME280;24368;52.156;20.788;2023-05-11T09:16:18;100973.56;;;14.66;33.66
38612;BME280;24368;52.156;20.788;2023-05-11T09:21:19;100974.33;;;14.79;36.04
38612;BME280;24368;52.156;20.788;2023-05-11T09:26:21;100977.59;;;14.82;36.96
38612;BME280;24368;52.156;20.788;2023-05-11T09:31:38;100977.02;;;15.05;33.11
38612;BME280;24368;52.156;20.788;2023-05-11T09:36:40;100972.24;;;15.08;33.06
38612;BME280;24368;52.156;20.788;2023-05-11T09:41:42;100968.54;;;15.25;35.21
38612;BME280;24368;52.156;20.788;2023-05-11T09:46:44;100967.02;;;15.37;34.79
38612;BME280;24368;52.156;20.788;2023-05-11T09:51:45;100964.16;;;15.47;33.94
38612;BME280;24368;52.156;20.788;2023-05-11T09:56:51;100953.95;;;15.66;33.54
38612;BME280;24368;52.156;20.788;2023-05-11T10:02:18;100954.68;;;15.78;32.02
38612;BME280;24368;52.156;20.788;2023-05-11T10:12:27;100948.73;;;16.03;31.85
38612;BME280;24368;52.156;20.788;2023-05-11T10:17:30;100945.98;;;16.15;31.96
38612;BME280;24368;52.156;20.788;2023-05-11T10:22:31;100939.89;;;16.27;33.69
38612;BME280;24368;52.156;20.788;2023-05-11T10:27:33;100932.77;;;16.53;35.58
38612;BME280;24368;52.156;20.788;2023-05-11T10:32:35;100930.14;;;16.60;32.69
38612;BME280;24368;52.156;20.788;2023-05-11T10:37:40;100927.15;;;16.55;32.80
38612;BME280;24368;52.156;20.788;2023-05-11T10:59:18;100919.40;;;17.25;33.80
38612;BME280;24368;52.156;20.788;2023-05-11T11:04:22;100918.95;;;17.34;32.20
38612;BME280;24368;52.156;20.788;2023-05-11T11:09:23;100910.52;;;17.34;30.99
38612;BME280;24368;52.156;20.788;2023-05-11T11:14:58;100902.92;;;17.65;31.18
38612;BME280;24368;52.156;20.788;2023-05-11T11:20:06;100896.99;;;18.32;33.07
38612;BME280;24368;52.156;20.788;2023-05-11T11:25:12;100895.14;;;18.86;32.88
38612;BME280;24368;52.156;20.788;2023-05-11T11:40:51;100892.52;;;19.00;31.74
38612;BME280;24368;52.156;20.788;2023-05-11T11:56:03;100897.66;;;18.05;32.47
38612;BME280;24368;52.156;20.788;2023-05-11T12:06:12;100904.54;;;18.00;31.59
38612;BME280;24368;52.156;20.788;2023-05-11T12:11:16;100893.61;;;17.97;32.68
38612;BME280;24368;52.156;20.788;2023-05-11T12:16:17;100898.64;;;18.17;32.84
38612;BME280;24368;52.156;20.788;2023-05-11T12:21:19;100898.98;;;18.03;32.92
38612;BME280;24368;52.156;20.788;2023-05-11T12:26:23;100897.16;;;18.02;31.64
38612;BME280;24368;52.156;20.788;2023-05-11T12:31:25;100886.75;;;18.02;33.87
38612;BME280;24368;52.156;20.788;2023-05-11T12:36:27;100882.08;;;18.15;32.60
38612;BME280;24368;52.156;20.788;2023-05-11T12:41:29;100871.95;;;18.20;33.30
38612;BME280;24368;52.156;20.788;2023-05-11T12:46:32;100870.64;;;18.16;32.34
38612;BME280;24368;52.156;20.788;2023-05-11T12:57:01;100859.59;;;18.15;32.43
38612;BME280;24368;52.156;20.788;2023-05-11T13:02:16;100862.27;;;18.28;32.50
38612;BME280;24368;52.156;20.788;2023-05-11T13:07:27;100857.36;;;18.32;31.61
38612;BME280;24368;52.156;20.788;2023-05-11T13:12:28;100844.44;;;18.52;33.67
38612;BME280;24368;52.156;20.788;2023-05-11T13:17:32;100852.36;;;18.39;31.79
38612;BME280;24368;52.156;20.788;2023-05-11T13:22:33;100841.55;;;18.27;32.86
38612;BME280;24368;52.156;20.788;2023-05-11T13:27:35;100826.75;;;18.76;34.76
38612;BME280;24368;52.156;20.788;2023-05-11T13:32:37;100838.84;;;18.85;31.98
38612;BME280;24368;52.156;20.788;2023-05-11T13:37:38;100834.10;;;18.89;33.47
38612;BME280;24368;52.156;20.788;2023-05-11T13:42:39;100830.05;;;19.00;32.93
38612;BME280;24368;52.156;20.788;2023-05-11T13:47:42;100834.71;;;18.83;30.93
38612;BME280;24368;52.156;20.788;2023-05-11T13:52:43;100831.95;;;18.66;30.94
38612;BME280;24368;52.156;20.788;2023-05-11T13:57:44;100828.05;;;18.77;32.29
38612;BME280;24368;52.156;20.788;2023-05-11T14:02:45;100830.84;;;18.75;32.08
38612;BME280;24368;52.156;20.788;2023-05-11T14:07:49;100827.63;;;18.56;31.51
38612;BME280;24368;52.156;20.788;2023-05-11T14:12:50;100825.31;;;18.75;31.14
38612;BME280;24368;52.156;20.788;2023-05-11T14:17:51;100817.73;;;18.74;31.44
38612;BME280;24368;52.156;20.788;2023-05-11T14:22:52;100821.05;;;18.99;32.75
38612;BME280;24368;52.156;20.788;2023-05-11T14:27:53;100817.65;;;19.26;31.00
38612;BME280;24368;52.156;20.788;2023-05-11T14:32:55;100823.41;;;19.44;30.79
38612;BME280;24368;52.156;20.788;2023-05-11T14:37:56;100824.25;;;19.29;29.65
38612;BME280;24368;52.156;20.788;2023-05-11T14:42:58;100821.83;;;19.30;30.96
38612;BME280;24368;52.156;20.788;2023-05-11T14:47:59;100823.03;;;19.15;29.13
38612;BME280;24368;52.156;20.788;2023-05-11T14:53:00;100822.32;;;18.95;29.12
38612;BME280;24368;52.156;20.788;2023-05-11T14:58:03;100817.75;;;19.07;29.93
38612;BME280;24368;52.156;20.788;2023-05-11T15:03:08;100822.66;;;18.92;29.49
38612;BME280;24368;52.156;20.788;2023-05-11T15:08:10;100818.27;;;18.81;30.41
38612;BME280;24368;52.156;20.788;2023-05-11T15:13:11;100815.36;;;18.99;30.41
38612;BME280;24368;52.156;20.788;2023-05-11T15:18:14;100807.29;;;19.06;30.74
38612;BME280;24368;52.156;20.788;2023-05-11T15:23:16;100813.00;;;19.30;31.98
38612;BME280;24368;52.156;20.788;2023-05-11T15:28:17;100821.45;;;19.40;29.11
38612;BME280;24368;52.156;20.788;2023-05-11T15:33:18;100813.39;;;19.57;29.22
38612;BME280;24368;52.156;20.788;2023-05-11T15:38:20;100809.55;;;20.20;28.91
38612;BME280;24368;52.156;20.788;2023-05-11T15:43:21;100814.73;;;20.28;27.73
38612;BME280;24368;52.156;20.788;2023-05-11T15:48:22;100818.96;;;20.68;28.31
38612;BME280;24368;52.156;20.788;2023-05-11T15:53:23;100811.14;;;20.27;28.10
38612;BME280;24368;52.156;20.788;2023-05-11T15:58:24;100819.86;;;20.01;29.49
38612;BME280;24368;52.156;20.788;2023-05-11T16:03:26;100831.98;;;19.36;28.19
38612;BME280;24368;52.156;20.788;2023-05-11T16:08:27;100828.30;;;18.75;28.44
38612;BME280;24368;52.156;20.788;2023-05-11T16:13:29;100828.88;;;18.53;28.93
38612;BME280;24368;52.156;20.788;2023-05-11T16:18:30;100823.23;;;18.41;29.61
38612;BME280;24368;52.156;20.788;2023-05-11T16:23:31;100828.31;;;18.25;29.30
38612;BME280;24368;52.156;20.788;2023-05-11T16:28:32;100826.36;;;18.22;30.87
38612;BME280;24368;52.156;20.788;2023-05-11T16:33:34;100824.96;;;18.17;31.02
38612;BME280;24368;52.156;20.788;2023-05-11T16:38:37;100823.02;;;18.10;31.49
38612;BME280;24368;52.156;20.788;2023-05-11T16:43:38;100821.52;;;17.96;31.40
38612;BME280;24368;52.156;20.788;2023-05-11T16:48:41;100822.73;;;17.89;31.56
38612;BME280;24368;52.156;20.788;2023-05-11T16:53:42;100822.84;;;17.99;32.66
38612;BME280;24368;52.156;20.788;2023-05-11T16:58:48;100825.69;;;17.86;32.90
38612;BME280;24368;52.156;20.788;2023-05-11T17:03:50;100829.88;;;17.69;32.36
38612;BME280;24368;52.156;20.788;2023-05-11T17:08:51;100827.10;;;17.60;33.32
38612;BME280;24368;52.156;20.788;2023-05-11T17:13:52;100828.09;;;17.60;34.46
38612;BME280;24368;52.156;20.788;2023-05-11T17:18:54;100833.14;;;17.48;33.74
38612;BME280;24368;52.156;20.788;2023-05-11T17:23:55;100833.91;;;17.42;34.59
38612;BME280;24368;52.156;20.788;2023-05-11T17:28:56;100836.79;;;17.34;34.85
38612;BME280;24368;52.156;20.788;2023-05-11T17:33:57;100837.96;;;17.17;35.00
38612;BME280;24368;52.156;20.788;2023-05-11T17:38:58;100842.88;;;17.06;34.53
38612;BME280;24368;52.156;20.788;2023-05-11T17:43:59;100849.30;;;17.03;35.02
38612;BME280;24368;52.156;20.788;2023-05-11T17:49:00;100848.84;;;16.95;36.37
38612;BME280;24368;52.156;20.788;2023-05-11T17:54:01;100853.29;;;16.83;35.84
38612;BME280;24368;52.156;20.788;2023-05-11T17:59:03;100857.76;;;16.72;36.36
38612;BME280;24368;52.156;20.788;2023-05-11T18:04:04;100861.36;;;16.61;37.21
38612;BME280;24368;52.156;20.788;2023-05-11T18:09:05;100867.04;;;16.52;38.01
38612;BME280;24368;52.156;20.788;2023-05-11T18:14:08;100871.27;;;16.40;38.40
38612;BME280;24368;52.156;20.788;2023-05-11T18:19:10;100876.66;;;16.29;39.02
38612;BME280;24368;52.156;20.788;2023-05-11T18:24:11;100882.70;;;16.09;40.23
38612;BME280;24368;52.156;20.788;2023-05-11T18:29:15;100887.73;;;15.95;39.53
38612;BME280;24368;52.156;20.788;2023-05-11T18:34:19;100888.86;;;15.88;39.01
38612;BME280;24368;52.156;20.788;2023-05-11T18:39:20;100897.48;;;15.78;39.18
38612;BME280;24368;52.156;20.788;2023-05-11T18:44:21;100901.86;;;15.64;39.45
38612;BME280;24368;52.156;20.788;2023-05-11T18:49:23;100902.59;;;15.61;39.61
38612;BME280;24368;52.156;20.788;2023-05-11T18:54:24;100907.81;;;15.54;39.90
38612;BME280;24368;52.156;20.788;2023-05-11T18:59:25;100909.70;;;15.42;40.63
38612;BME280;24368;52.156;20.788;2023-05-11T19:04:26;100910.91;;;15.30;41.00
38612;BME280;24368;52.156;20.788;2023-05-11T19:09:27;100916.04;;;15.28;41.13
38612;BME280;24368;52.156;20.788;2023-05-11T19:14:28;100919.02;;;15.19;40.60
38612;BME280;24368;52.156;20.788;2023-05-11T19:19:30;100922.70;;;15.08;42.08
38612;BME280;24368;52.156;20.788;2023-05-11T19:24:31;100926.48;;;14.98;42.21
38612;BME280;24368;52.156;20.788;2023-05-11T19:29:32;100929.31;;;14.90;41.77
38612;BME280;24368;52.156;20.788;2023-05-11T19:34:33;100931.89;;;14.79;42.33
38612;BME280;24368;52.156;20.788;2023-05-11T19:39:36;100937.41;;;14.73;43.03
38612;BME280;24368;52.156;20.788;2023-05-11T19:44:37;100937.55;;;14.67;42.92
38612;BME280;24368;52.156;20.788;2023-05-11T19:49:43;100940.36;;;14.54;44.74
38612;BME280;24368;52.156;20.788;2023-05-11T19:54:44;100939.98;;;14.45;43.37
38612;BME280;24368;52.156;20.788;2023-05-11T19:59:45;100940.83;;;14.44;43.92
38612;BME280;24368;52.156;20.788;2023-05-11T20:04:46;100943.32;;;14.44;45.43
38612;BME280;24368;52.156;20.788;2023-05-11T20:09:47;100948.16;;;14.32;45.17
38612;BME280;24368;52.156;20.788;2023-05-11T20:14:49;100949.50;;;14.24;45.38
38612;BME280;24368;52.156;20.788;2023-05-11T20:19:50;100953.73;;;14.14;45.92
38612;BME280;24368;52.156;20.788;2023-05-11T20:24:51;100955.99;;;14.10;46.48
38612;BME280;24368;52.156;20.788;2023-05-11T20:29:53;100954.27;;;14.01;46.39
38612;BME280;24368;52.156;20.788;2023-05-11T20:34:54;100958.69;;;14.00;47.23
38612;BME280;24368;52.156;20.788;2023-05-11T20:39:56;100959.38;;;13.93;46.23
38612;BME280;24368;52.156;20.788;2023-05-11T20:44:57;100959.63;;;13.80;46.43
38612;BME280;24368;52.156;20.788;2023-05-11T20:50:05;100962.61;;;13.79;46.82
38612;BME280;24368;52.156;20.788;2023-05-11T20:55:08;100958.21;;;13.80;46.65
38612;BME280;24368;52.156;20.788;2023-05-11T21:00:09;100959.36;;;13.69;46.44
38612;BME280;24368;52.156;20.788;2023-05-11T21:05:11;100959.12;;;13.67;46.70
38612;BME280;24368;52.156;20.788;2023-05-11T21:10:12;100964.63;;;13.60;47.49
38612;BME280;24368;52.156;20.788;2023-05-11T21:15:14;100972.68;;;13.57;47.87
38612;BME280;24368;52.156;20.788;2023-05-11T21:20:15;100981.03;;;13.55;47.74
38612;BME280;24368;52.156;20.788;2023-05-11T21:25:16;100988.13;;;13.46;48.33
38612;BME280;24368;52.156;20.788;2023-05-11T21:30:17;100988.09;;;13.40;48.89
38612;BME280;24368;52.156;20.788;2023-05-11T21:35:18;100993.94;;;13.33;48.92
38612;BME280;24368;52.156;20.788;2023-05-11T21:40:19;100994.98;;;13.29;49.58
38612;BME280;24368;52.156;20.788;2023-05-11T21:45:21;100996.77;;;13.19;49.70
38612;BME280;24368;52.156;20.788;2023-05-11T21:50:22;101000.72;;;13.18;49.97
38612;BME280;24368;52.156;20.788;2023-05-11T21:55:23;101002.36;;;13.05;49.13
38612;BME280;24368;52.156;20.788;2023-05-11T22:00:24;101007.08;;;12.97;49.08
38612;BME280;24368;52.156;20.788;2023-05-11T22:05:26;101012.41;;;12.88;49.00
38612;BME280;24368;52.156;20.788;2023-05-11T22:10:27;101003.61;;;12.85;49.52
38612;BME280;24368;52.156;20.788;2023-05-11T22:15:29;101013.79;;;12.85;50.36
38612;BME280;24368;52.156;20.788;2023-05-11T22:20:30;101013.05;;;12.81;50.40
38612;BME280;24368;52.156;20.788;2023-05-11T22:25:31;101020.69;;;12.70;49.84
38612;BME280;24368;52.156;20.788;2023-05-11T22:30:32;101020.02;;;12.67;50.31
38612;BME280;24368;52.156;20.788;2023-05-11T22:35:33;101025.77;;;12.55;50.70
38612;BME280;24368;52.156;20.788;2023-05-11T22:40:35;101026.92;;;12.48;50.80
38612;BME280;24368;52.156;20.788;2023-05-11T22:45:36;101030.46;;;12.44;51.33
38612;BME280;24368;52.156;20.788;2023-05-11T22:50:40;101029.95;;;12.39;51.16
38612;BME280;24368;52.156;20.788;2023-05-11T22:55:46;101031.81;;;12.34;51.49
38612;BME280;24368;52.156;20.788;2023-05-11T23:00:47;101031.33;;;12.21;52.05
38612;BME280;24368;52.156;20.788;2023-05-11T23:05:54;101037.74;;;12.17;53.19
38612;BME280;24368;52.156;20.788;2023-05-11T23:10:55;101032.14;;;12.13;54.01
38612;BME280;24368;52.156;20.788;2023-05-11T23:15:56;101032.10;;;12.02;53.49
38612;BME280;24368;52.156;20.788;2023-05-11T23:20:58;101029.73;;;11.95;53.84
38612;BME280;24368;52.156;20.788;2023-05-11T23:25:59;101025.76;;;11.92;53.42
38612;BME280;24368;52.156;20.788;2023-05-11T23:31:00;101023.95;;;11.91;53.92
38612;BME280;24368;52.156;20.788;2023-05-11T23:36:02;101024.08;;;11.84;53.52
38612;BME280;24368;52.156;20.788;2023-05-11T23:41:03;101026.83;;;11.75;53.45
38612;BME280;24368;52.156;20.788;2023-05-11T23:46:04;101025.11;;;11.71;53.57
38612;BME280;24368;52.156;20.788;2023-05-11T23:51:05;101030.10;;;11.65;52.86
38612;BME280;24368;52.156;20.788;2023-05-11T23:56:06;101026.75;;;11.65;53.85
